createdAt,value
2022-12-25T00:01:58.322Z,36.89
2022-12-25T00:07:05.512Z,36.79
2022-12-25T00:12:12.741Z,36.68
2022-12-25T00:17:19.945Z,36.62
2022-12-25T00:22:27.099Z,36.58
2022-12-25T00:27:34.341Z,36.57
2022-12-25T00:32:41.555Z,36.55
2022-12-25T00:37:48.739Z,36.56
2022-12-25T00:42:55.917Z,36.54
2022-12-25T00:48:03.133Z,36.49
2022-12-25T00:53:10.275Z,36.52
2022-12-25T00:58:17.442Z,36.50
2022-12-25T01:03:24.749Z,36.46
2022-12-25T01:08:31.819Z,36.50
2022-12-25T01:13:39.102Z,36.49
2022-12-25T01:18:46.349Z,36.56
2022-12-25T01:23:53.597Z,36.73
2022-12-25T01:29:00.797Z,36.59
2022-12-25T01:34:08.039Z,36.50
2022-12-25T01:39:15.202Z,36.51
2022-12-25T01:44:22.429Z,36.47
2022-12-25T01:49:29.682Z,36.51
2022-12-25T01:54:36.832Z,36.51
2022-12-25T01:59:44.033Z,36.48
2022-12-25T02:04:51.215Z,36.71
2022-12-25T02:09:58.409Z,36.62
2022-12-25T02:15:06.418Z,36.64
2022-12-25T02:20:12.823Z,36.58
2022-12-25T02:25:20.011Z,36.67
2022-12-25T02:30:27.220Z,36.65
2022-12-25T02:35:34.457Z,36.67
2022-12-25T02:40:41.642Z,36.66
2022-12-25T02:45:48.846Z,36.68
2022-12-25T02:50:56.081Z,36.70
2022-12-25T02:56:03.315Z,36.72
2022-12-25T03:01:10.632Z,36.73
2022-12-25T03:06:17.724Z,36.69
2022-12-25T03:11:24.924Z,36.72
2022-12-25T03:16:32.237Z,36.75
2022-12-25T03:21:39.397Z,36.75
2022-12-25T03:26:46.546Z,36.73
2022-12-25T03:31:53.781Z,36.75
2022-12-25T03:37:01.015Z,36.80
2022-12-25T03:42:08.194Z,36.75
2022-12-25T03:47:15.439Z,37.02
2022-12-25T03:52:22.722Z,36.96
2022-12-25T03:57:29.894Z,36.93
2022-12-25T04:02:37.316Z,36.93
2022-12-25T04:07:44.381Z,36.84
2022-12-25T04:12:51.533Z,36.82
2022-12-25T04:17:58.729Z,36.80
2022-12-25T04:23:05.990Z,36.79
2022-12-25T04:28:13.105Z,36.76
2022-12-25T04:33:20.333Z,36.76
2022-12-25T04:38:27.571Z,36.75
2022-12-25T04:43:34.767Z,36.70
2022-12-25T04:48:41.980Z,36.75
2022-12-25T04:53:49.195Z,36.72
2022-12-25T04:58:56.362Z,36.70
2022-12-25T05:04:03.529Z,36.74
2022-12-25T05:09:10.804Z,36.70
2022-12-25T05:14:18.012Z,36.69
2022-12-25T05:19:25.251Z,36.67
2022-12-25T05:24:32.510Z,36.64
2022-12-25T05:29:39.727Z,36.67
2022-12-25T05:34:47.095Z,36.75
2022-12-25T05:39:54.286Z,36.76
2022-12-25T05:45:01.408Z,36.73
2022-12-25T05:50:08.570Z,36.70
2022-12-25T05:55:15.767Z,36.80
2022-12-25T06:00:22.970Z,36.78
2022-12-25T06:05:30.176Z,36.82
2022-12-25T06:10:37.368Z,36.78
2022-12-25T06:15:44.512Z,36.81
2022-12-25T06:20:51.739Z,36.80
2022-12-25T06:25:58.967Z,36.84
2022-12-25T06:31:06.213Z,36.85
2022-12-25T06:36:13.350Z,36.88
2022-12-25T06:41:20.940Z,36.87
2022-12-25T06:46:28.096Z,36.95
2022-12-25T06:51:35.243Z,36.95
2022-12-25T06:56:42.523Z,36.88
2022-12-25T07:01:49.927Z,36.88
2022-12-25T07:06:56.917Z,36.83
2022-12-25T07:12:04.116Z,36.79
2022-12-25T07:17:11.284Z,36.80
2022-12-25T07:22:18.520Z,36.78
2022-12-25T07:27:25.732Z,36.80
2022-12-25T07:32:32.927Z,36.82
2022-12-25T07:37:40.078Z,36.84
2022-12-25T07:42:47.283Z,36.84
2022-12-25T07:47:55.217Z,36.88
2022-12-25T07:53:01.651Z,36.89
2022-12-25T07:58:08.860Z,36.86
2022-12-25T08:03:16.281Z,36.87
2022-12-25T08:08:23.221Z,36.92
2022-12-25T08:13:30.470Z,36.87
2022-12-25T08:18:37.683Z,36.88
2022-12-25T08:23:44.898Z,36.92
2022-12-25T08:28:52.226Z,36.82
2022-12-25T08:33:59.467Z,36.83
2022-12-25T08:39:06.684Z,36.72
2022-12-25T08:44:13.914Z,36.65
2022-12-25T08:49:21.076Z,36.79
2022-12-25T08:54:28.258Z,36.76
2022-12-25T08:59:35.489Z,36.71
2022-12-25T09:04:42.685Z,36.72
2022-12-25T09:09:49.861Z,36.72
2022-12-25T09:14:57.128Z,36.75
2022-12-25T09:20:04.257Z,36.80
2022-12-25T09:25:11.409Z,36.81
2022-12-25T09:30:18.650Z,36.94
2022-12-25T09:35:25.855Z,36.94
2022-12-25T09:40:33.064Z,36.93
2022-12-25T09:45:40.298Z,37.00
2022-12-25T09:50:47.474Z,37.01
2022-12-25T09:55:54.688Z,36.93
2022-12-25T10:01:01.891Z,36.91
2022-12-25T10:06:09.075Z,36.91
2022-12-25T10:11:16.301Z,36.93
2022-12-25T10:16:23.631Z,36.95
2022-12-25T10:21:30.781Z,36.82
2022-12-25T10:26:38.023Z,36.78
2022-12-25T10:31:45.264Z,36.83
2022-12-25T10:36:52.491Z,36.83
2022-12-25T10:41:59.730Z,36.77
2022-12-25T10:47:06.982Z,36.77
2022-12-25T10:52:14.195Z,36.76
2022-12-25T10:57:21.454Z,36.86
2022-12-25T11:02:29.001Z,36.84
2022-12-25T11:07:35.998Z,37.02
2022-12-25T11:12:43.227Z,36.80
2022-12-25T11:17:50.476Z,36.84
2022-12-25T11:22:57.634Z,36.98
2022-12-25T11:28:04.812Z,36.81
2022-12-25T11:33:12.107Z,37.39
2022-12-25T11:38:19.271Z,37.86
2022-12-25T11:43:26.460Z,38.15
2022-12-25T11:48:33.644Z,37.63
2022-12-25T11:53:40.850Z,37.84
2022-12-25T11:58:48.083Z,37.68
2022-12-25T12:03:55.651Z,36.99
2022-12-25T12:09:02.571Z,36.87
2022-12-25T12:14:09.840Z,37.05
2022-12-25T12:19:17.140Z,36.69
2022-12-25T12:24:24.382Z,36.54
2022-12-25T12:29:31.603Z,36.72
2022-12-25T12:34:38.869Z,36.42
2022-12-25T12:39:46.130Z,36.11
2022-12-25T12:44:53.306Z,36.20
2022-12-25T12:50:00.580Z,36.38
2022-12-25T12:55:07.777Z,36.24
2022-12-25T13:00:15.032Z,36.32
2022-12-25T13:05:22.221Z,35.73
2022-12-25T13:10:29.451Z,35.74
2022-12-25T13:15:36.654Z,35.97
2022-12-25T13:20:43.911Z,35.62
2022-12-25T13:25:51.164Z,35.70
2022-12-25T13:30:58.389Z,35.67
2022-12-25T13:36:05.648Z,35.89
2022-12-25T13:41:12.881Z,36.06
2022-12-25T13:46:20.155Z,35.87
2022-12-25T13:51:27.302Z,35.63
2022-12-25T13:56:34.494Z,35.44
2022-12-25T14:01:41.937Z,35.37
2022-12-25T14:06:48.995Z,35.11
2022-12-25T14:11:56.241Z,34.96
2022-12-25T14:17:03.555Z,34.99
2022-12-25T14:22:10.704Z,34.98
2022-12-25T14:27:17.909Z,35.02
2022-12-25T14:32:25.151Z,35.08
2022-12-25T14:37:32.361Z,35.06
2022-12-25T14:42:39.528Z,35.12
2022-12-25T14:47:46.774Z,35.26
2022-12-25T14:52:54.236Z,35.00
2022-12-25T14:58:01.355Z,35.60
2022-12-25T15:03:08.670Z,35.02
2022-12-25T15:08:15.801Z,35.42
2022-12-25T15:13:23.001Z,35.21
2022-12-25T15:18:30.185Z,35.25
2022-12-25T15:23:37.493Z,35.59
2022-12-25T15:28:44.623Z,34.61
2022-12-25T15:33:51.945Z,34.96
2022-12-25T15:38:59.173Z,34.89
2022-12-25T15:44:06.375Z,35.19
2022-12-25T15:49:13.557Z,34.93
2022-12-25T15:54:20.858Z,34.91
2022-12-25T15:59:28.027Z,35.26
2022-12-25T16:04:35.227Z,35.07
2022-12-25T16:09:42.552Z,34.97
2022-12-25T16:14:49.689Z,35.03
2022-12-25T16:19:56.952Z,34.96
2022-12-25T16:25:04.258Z,35.14
2022-12-25T16:30:11.482Z,35.32
2022-12-25T16:35:18.680Z,35.27
2022-12-25T16:40:25.912Z,35.10
2022-12-25T16:45:33.126Z,34.77
2022-12-25T16:50:40.299Z,34.76
2022-12-25T16:55:47.564Z,34.67
2022-12-25T17:00:54.681Z,34.63
2022-12-25T17:06:01.887Z,35.00
2022-12-25T17:11:09.109Z,34.80
2022-12-25T17:16:16.394Z,34.87
2022-12-25T17:21:23.524Z,35.34
2022-12-25T17:26:30.780Z,34.79
2022-12-25T17:31:38.085Z,34.69
2022-12-25T17:36:45.299Z,34.67
2022-12-25T17:41:52.484Z,34.66
2022-12-25T17:46:59.821Z,34.68
2022-12-25T17:52:06.852Z,34.58
2022-12-25T17:57:14.151Z,34.08
2022-12-25T18:02:21.449Z,34.54
2022-12-25T18:07:28.579Z,34.49
2022-12-25T18:12:35.844Z,34.48
2022-12-25T18:17:43.058Z,34.65
2022-12-25T18:22:50.272Z,34.69
2022-12-25T18:27:57.510Z,34.77
2022-12-25T18:33:04.725Z,34.79
2022-12-25T18:38:11.884Z,34.71
2022-12-25T18:43:19.112Z,34.64
2022-12-25T18:48:26.301Z,34.52
2022-12-25T18:53:33.515Z,34.48
2022-12-25T18:58:40.781Z,34.49
2022-12-25T19:03:47.940Z,34.42
2022-12-25T19:08:55.387Z,34.74
2022-12-25T19:14:02.636Z,34.57
2022-12-25T19:19:09.838Z,34.58
2022-12-25T19:24:17.054Z,34.53
2022-12-25T19:29:24.464Z,34.49
2022-12-25T19:34:31.678Z,34.50
2022-12-25T19:39:39.173Z,34.51
2022-12-25T19:44:46.654Z,34.53
2022-12-25T19:49:56.413Z,34.59
2022-12-25T19:55:01.092Z,34.58
2022-12-25T20:00:08.332Z,34.55
2022-12-25T20:05:15.639Z,34.58
2022-12-25T20:10:22.976Z,34.64
2022-12-25T20:15:30.244Z,34.65
2022-12-25T20:20:37.454Z,34.53
2022-12-25T20:25:44.688Z,34.55
2022-12-25T20:30:51.951Z,34.49
2022-12-25T20:35:59.118Z,34.37
2022-12-25T20:46:13.801Z,34.34
2022-12-25T20:51:21.071Z,34.15
2022-12-25T20:56:28.272Z,34.29
2022-12-25T21:01:35.602Z,34.22
2022-12-25T21:06:42.672Z,34.17
2022-12-25T21:11:49.986Z,34.14
2022-12-25T21:16:57.274Z,34.22
2022-12-25T21:22:04.435Z,34.00
2022-12-25T21:27:11.689Z,34.08
2022-12-25T21:32:18.920Z,34.01
2022-12-25T21:37:26.117Z,33.88
2022-12-25T21:42:33.297Z,33.72
2022-12-25T21:48:01.335Z,33.84
2022-12-25T21:52:47.706Z,33.80
2022-12-25T21:57:54.962Z,33.83
2022-12-25T22:03:02.316Z,33.94
2022-12-25T22:08:09.312Z,34.02
2022-12-25T22:13:16.576Z,34.18
2022-12-25T22:18:23.727Z,34.17
2022-12-25T22:23:30.939Z,33.82
2022-12-25T22:28:38.155Z,34.03
2022-12-25T22:33:45.395Z,33.88
2022-12-25T22:38:52.568Z,33.86
2022-12-25T22:44:17.199Z,33.78
2022-12-25T22:49:06.995Z,33.72
2022-12-25T22:54:14.234Z,33.68
2022-12-25T22:59:21.473Z,33.67
2022-12-25T23:04:28.711Z,33.76
2022-12-25T23:09:35.990Z,33.38
2022-12-25T23:14:43.239Z,32.80
2022-12-25T23:19:50.496Z,32.84
2022-12-25T23:24:57.719Z,32.12
2022-12-25T23:30:09.771Z,32.10
2022-12-25T23:35:17.000Z,32.52
2022-12-25T23:40:24.220Z,32.55
2022-12-25T23:45:31.465Z,32.46
2022-12-25T23:50:38.681Z,32.59
2022-12-25T23:55:51.535Z,32.75
